createdAt,value
2018-12-24T00:00:42.361Z,101502.55
2018-12-24T00:03:12.340Z,101494.31
2018-12-24T00:05:42.078Z,101505.30
2018-12-24T00:08:11.496Z,101512.59
2018-12-24T00:10:41.076Z,101514.52
2018-12-24T00:13:17.570Z,101522.39
2018-12-24T00:15:47.280Z,101527.12
2018-12-24T00:18:56.107Z,101525.64
2018-12-24T00:21:25.572Z,101536.07
2018-12-24T00:23:55.102Z,101538.97
2018-12-24T00:26:43.650Z,101543.34
2018-12-24T00:29:13.209Z,101550.72
2018-12-24T00:31:42.759Z,101550.48
2018-12-24T00:34:12.219Z,101554.82
2018-12-24T00:36:41.604Z,101557.85
2018-12-24T00:39:11.083Z,101566.97
2018-12-24T00:41:40.642Z,101573.59
2018-12-24T00:44:10.201Z,101576.36
2018-12-24T00:46:39.610Z,101579.83
2018-12-24T00:51:50.571Z,101597.20
2018-12-24T00:54:20.096Z,101596.69
2018-12-24T00:56:49.519Z,101605.91
2018-12-24T00:59:40.193Z,101613.84
2018-12-24T01:01:52.322Z,101620.98
2018-12-24T01:04:21.759Z,101627.34
2018-12-24T01:06:51.129Z,101633.41
2018-12-24T01:09:20.830Z,101644.78
2018-12-24T01:11:50.287Z,101656.41
2018-12-24T01:14:19.690Z,101659.42
2018-12-24T01:16:49.162Z,101662.88
2018-12-24T01:19:18.555Z,101662.08
2018-12-24T01:21:47.935Z,101676.93
2018-12-24T01:24:17.416Z,101683.55
2018-12-24T01:26:46.827Z,101687.05
2018-12-24T01:29:16.233Z,101690.58
2018-12-24T01:31:45.823Z,101696.44
2018-12-24T01:34:15.266Z,101700.70
2018-12-24T01:36:44.810Z,101700.91
2018-12-24T01:39:33.163Z,101713.95
2018-12-24T01:42:02.791Z,101719.59
2018-12-24T01:44:32.150Z,101722.07
2018-12-24T01:52:51.003Z,101735.41
2018-12-24T01:55:20.445Z,101739.32
2018-12-24T01:57:49.874Z,101751.02
2018-12-24T02:00:19.411Z,101753.72
2018-12-24T02:02:48.814Z,101761.33
2018-12-24T02:05:18.202Z,101764.52
2018-12-24T02:07:47.747Z,101778.14
2018-12-24T02:10:17.169Z,101778.58
2018-12-24T02:12:46.549Z,101784.81
2018-12-24T02:15:16.078Z,101796.73
2018-12-24T02:17:45.492Z,101794.96
2018-12-24T02:20:15.042Z,101805.89
2018-12-24T02:22:44.536Z,101808.81
2018-12-24T02:25:14.077Z,101820.02
2018-12-24T02:27:43.441Z,101824.47
2018-12-24T02:30:12.879Z,101832.37
2018-12-24T02:32:42.249Z,101843.13
2018-12-24T02:35:11.655Z,101845.03
2018-12-24T02:37:41.146Z,101847.05
2018-12-24T02:40:10.540Z,101853.15
2018-12-24T02:42:39.972Z,101861.43
2018-12-24T02:45:09.454Z,101866.27
2018-12-24T02:47:39.213Z,101865.21
2018-12-24T02:50:09.255Z,101871.26
2018-12-24T02:52:39.306Z,101870.69
2018-12-24T02:55:09.385Z,101876.33
2018-12-24T03:00:40.977Z,101881.97
2018-12-24T03:03:10.363Z,101889.24
2018-12-24T03:06:10.415Z,101897.97
2018-12-24T03:11:20.206Z,101913.53
2018-12-24T03:13:49.608Z,101914.63
2018-12-24T03:16:19.005Z,101923.02
2018-12-24T03:18:48.434Z,101926.27
2018-12-24T03:21:17.865Z,101930.52
2018-12-24T03:23:47.230Z,101936.17
2018-12-24T03:26:35.650Z,101938.17
2018-12-24T03:29:05.030Z,101936.77
2018-12-24T03:31:34.468Z,101953.03
2018-12-24T03:34:03.941Z,101961.80
2018-12-24T03:36:33.315Z,101961.68
2018-12-24T03:39:02.693Z,101962.69
2018-12-24T03:41:32.295Z,101980.32
2018-12-24T03:46:50.109Z,101993.98
2018-12-24T03:49:58.845Z,102000.89
2018-12-24T03:52:40.097Z,102004.31
2018-12-24T03:55:09.554Z,102012.16
2018-12-24T03:58:10.033Z,102024.35
2018-12-24T04:00:39.520Z,102023.41
2018-12-24T04:03:09.303Z,102026.09
2018-12-24T04:05:39.471Z,102032.86
2018-12-24T04:08:09.284Z,102030.80
2018-12-24T04:10:58.356Z,102037.51
2018-12-24T04:13:27.787Z,102049.80
2018-12-24T04:15:57.198Z,102055.85
2018-12-24T04:21:28.282Z,102058.23
2018-12-24T04:23:57.781Z,102065.38
2018-12-24T04:26:27.156Z,102072.94
2018-12-24T04:28:56.686Z,102074.41
2018-12-24T04:31:26.167Z,102076.80
2018-12-24T04:33:55.532Z,102079.60
2018-12-24T04:36:25.042Z,102083.56
2018-12-24T04:38:54.431Z,102088.73
2018-12-24T04:44:25.522Z,102103.67
2018-12-24T04:46:54.907Z,102108.16
2018-12-24T04:49:24.297Z,102110.83
2018-12-24T04:52:12.764Z,102110.28
2018-12-24T04:54:53.343Z,102110.28
2018-12-24T04:57:22.801Z,102115.81
2018-12-24T05:00:11.216Z,102139.91
2018-12-24T05:02:40.719Z,102139.91
2018-12-24T05:05:10.155Z,102145.96
2018-12-24T05:07:39.545Z,102154.66
2018-12-24T05:10:09.533Z,102167.59
2018-12-24T05:12:39.425Z,102183.62
2018-12-24T05:15:09.447Z,102195.52
2018-12-24T05:17:39.574Z,102221.92
2018-12-24T05:20:09.319Z,102231.53
2018-12-24T05:22:39.344Z,102245.91
2018-12-24T05:25:09.436Z,102255.06
2018-12-24T05:27:58.554Z,102262.58
2018-12-24T05:30:28.132Z,102262.58
2018-12-24T05:32:57.576Z,102270.17
2018-12-24T05:35:26.998Z,102281.73
2018-12-24T05:37:56.481Z,102290.07
2018-12-24T05:40:46.322Z,102299.91
2018-12-24T05:43:15.888Z,102308.30
2018-12-24T05:45:45.271Z,102310.05
2018-12-24T05:48:14.702Z,102320.22
2018-12-24T05:50:44.219Z,102325.53
2018-12-24T05:53:13.636Z,102333.80
2018-12-24T05:55:43.103Z,102338.14
2018-12-24T05:58:12.554Z,102347.44
2018-12-24T06:00:41.937Z,102357.11
2018-12-24T06:03:30.400Z,102359.17
2018-12-24T06:06:11.432Z,102377.94
2018-12-24T06:11:42.597Z,102383.70
2018-12-24T06:14:12.004Z,102385.00
2018-12-24T06:16:41.392Z,102386.33
2018-12-24T06:19:10.923Z,102385.86
2018-12-24T06:21:40.317Z,102398.12
2018-12-24T06:24:09.697Z,102403.30
2018-12-24T06:26:39.806Z,102423.41
2018-12-24T06:29:09.659Z,102424.83
2018-12-24T06:31:39.564Z,102430.20
2018-12-24T06:34:09.878Z,102431.84
2018-12-24T06:36:39.594Z,102449.00
2018-12-24T06:39:09.785Z,102447.16
2018-12-24T06:41:39.917Z,102460.73
2018-12-24T06:46:58.097Z,102475.20
2018-12-24T06:49:27.514Z,102469.92
2018-12-24T06:51:56.932Z,102482.85
2018-12-24T06:54:26.462Z,102483.31
2018-12-24T06:56:55.937Z,102486.81
2018-12-24T06:59:25.325Z,102491.69
2018-12-24T07:01:54.860Z,102490.84
2018-12-24T07:04:24.401Z,102498.19
2018-12-24T07:06:53.804Z,102498.56
2018-12-24T07:09:23.243Z,102495.95
2018-12-24T07:11:52.611Z,102499.87
2018-12-24T07:14:21.997Z,102492.88
2018-12-24T07:19:32.735Z,102505.28
2018-12-24T07:22:02.293Z,102505.78
2018-12-24T07:24:31.745Z,102508.00
2018-12-24T07:27:01.380Z,102513.68
2018-12-24T07:32:12.227Z,102514.56
2018-12-24T07:34:41.644Z,102517.73
2018-12-24T07:37:11.086Z,102526.48
2018-12-24T07:39:40.537Z,102541.86
2018-12-24T07:42:09.966Z,102546.25
2018-12-24T07:44:39.688Z,102544.13
2018-12-24T07:47:09.897Z,102548.03
2018-12-24T07:49:40.138Z,102555.41
2018-12-24T07:52:09.782Z,102549.69
2018-12-24T07:54:39.901Z,102556.72
2018-12-24T07:57:09.735Z,102573.77
2018-12-24T07:59:39.942Z,102572.91
2018-12-24T08:02:09.799Z,102573.36
2018-12-24T08:04:39.621Z,102573.84
2018-12-24T08:07:09.698Z,102587.64
2018-12-24T08:09:39.903Z,102593.83
2018-12-24T08:12:09.812Z,102614.09
2018-12-24T08:14:39.805Z,102618.47
2018-12-24T08:17:09.902Z,102627.36
2018-12-24T08:19:39.740Z,102627.88
2018-12-24T08:22:09.769Z,102634.50
2018-12-24T08:24:39.798Z,102647.72
2018-12-24T08:27:28.728Z,102657.86
2018-12-24T08:29:58.267Z,102661.43
2018-12-24T08:32:27.694Z,102669.77
2018-12-24T08:34:57.081Z,102669.36
2018-12-24T08:37:26.620Z,102678.17
2018-12-24T08:39:56.028Z,102676.42
2018-12-24T08:42:25.464Z,102682.58
2018-12-24T08:44:54.883Z,102691.33
2018-12-24T08:47:24.365Z,102698.35
2018-12-24T08:49:53.798Z,102703.60
2018-12-24T08:55:03.296Z,102713.33
2018-12-24T08:57:32.699Z,102719.06
2018-12-24T09:00:02.201Z,102713.33
2018-12-24T09:02:31.680Z,102712.47
2018-12-24T09:05:01.195Z,102714.21
2018-12-24T09:07:30.646Z,102726.98
2018-12-24T09:10:00.058Z,102727.84
2018-12-24T09:12:29.652Z,102737.97
2018-12-24T09:14:59.134Z,102733.58
2018-12-24T09:17:28.542Z,102734.45
2018-12-24T09:19:57.936Z,102741.04
2018-12-24T09:22:27.522Z,102740.17
2018-12-24T09:24:57.058Z,102738.43
2018-12-24T09:27:26.509Z,102747.22
2018-12-24T09:29:56.091Z,102753.77
2018-12-24T09:32:25.678Z,102762.13
2018-12-24T09:34:55.054Z,102766.54
2018-12-24T09:37:24.506Z,102762.13
2018-12-24T09:39:53.908Z,102770.47
2018-12-24T09:42:23.333Z,102764.77
2018-12-24T09:44:58.976Z,102756.39
2018-12-24T09:47:23.990Z,102754.66
2018-12-24T09:49:53.401Z,102760.80
2018-12-24T09:52:23.067Z,102770.91
2018-12-24T09:54:52.416Z,102763.44
2018-12-24T09:57:21.887Z,102766.94
2018-12-24T09:59:51.486Z,102768.68
2018-12-24T10:02:23.190Z,102776.13
2018-12-24T10:04:55.819Z,102778.34
2018-12-24T10:07:48.395Z,102778.76
2018-12-24T10:10:19.482Z,102775.69
2018-12-24T10:12:48.920Z,102776.98
2018-12-24T10:15:18.363Z,102786.66
2018-12-24T10:17:47.746Z,102783.16
2018-12-24T10:20:17.170Z,102787.53
2018-12-24T10:23:05.618Z,102790.62
2018-12-24T10:25:35.042Z,102805.59
2018-12-24T10:28:04.444Z,102803.82
2018-12-24T10:33:15.274Z,102811.28
2018-12-24T10:35:44.650Z,102810.00
2018-12-24T10:38:14.070Z,102811.30
2018-12-24T10:41:08.216Z,102821.41
2018-12-24T10:43:37.614Z,102818.73
2018-12-24T10:46:06.982Z,102823.55
2018-12-24T10:48:36.447Z,102828.39
2018-12-24T10:51:05.901Z,102828.80
2018-12-24T10:53:35.337Z,102824.88
2018-12-24T10:58:46.146Z,102825.16
2018-12-24T11:01:15.593Z,102825.54
2018-12-24T11:03:45.049Z,102823.69
2018-12-24T11:06:14.660Z,102819.15
2018-12-24T11:08:44.065Z,102826.11
2018-12-24T11:11:13.487Z,102815.85
2018-12-24T11:14:01.971Z,102818.33
2018-12-24T11:21:53.015Z,102824.80
2018-12-24T11:24:22.524Z,102831.03
2018-12-24T11:27:10.777Z,102818.77
2018-12-24T11:29:40.287Z,102818.73
2018-12-24T11:32:10.195Z,102815.58
2018-12-24T11:34:39.859Z,102823.52
2018-12-24T11:37:10.397Z,102816.87
2018-12-24T11:40:11.743Z,102811.09
2018-12-24T11:42:41.333Z,102802.59
2018-12-24T11:45:50.148Z,102799.18
2018-12-24T11:51:40.426Z,102796.34
2018-12-24T11:54:40.557Z,102805.61
2018-12-24T11:57:40.809Z,102805.22
2018-12-24T12:00:20.535Z,102797.13
2018-12-24T12:09:18.785Z,102821.98
2018-12-24T12:12:27.508Z,102827.74
2018-12-24T12:15:15.931Z,102821.88
2018-12-24T12:17:45.503Z,102822.36
2018-12-24T12:20:14.883Z,102814.33
2018-12-24T12:22:44.290Z,102814.52
2018-12-24T12:25:13.839Z,102820.20
2018-12-24T12:27:43.275Z,102822.05
2018-12-24T12:30:12.703Z,102832.43
2018-12-24T12:32:42.255Z,102832.52
2018-12-24T12:38:00.102Z,102840.14
2018-12-24T12:40:29.505Z,102837.91
2018-12-24T12:42:58.924Z,102840.83
2018-12-24T12:48:09.935Z,102836.51
2018-12-24T12:50:40.134Z,102837.81
2018-12-24T12:53:09.977Z,102833.30
2018-12-24T12:55:40.045Z,102836.86
2018-12-24T12:58:10.005Z,102842.63
2018-12-24T13:00:40.028Z,102850.48
2018-12-24T13:03:09.971Z,102850.86
2018-12-24T13:05:40.057Z,102854.30
2018-12-24T13:08:09.994Z,102847.52
2018-12-24T13:10:40.103Z,102858.02
2018-12-24T13:13:36.541Z,102855.27
2018-12-24T13:16:00.185Z,102854.43
2018-12-24T13:18:29.659Z,102856.63
2018-12-24T13:23:41.055Z,102852.64
2018-12-24T13:26:10.674Z,102852.44
2018-12-24T13:28:59.123Z,102846.10
2018-12-24T13:31:28.649Z,102852.38
2018-12-24T13:33:58.080Z,102843.10
2018-12-24T13:36:27.503Z,102841.74
2018-12-24T13:38:57.048Z,102851.64
2018-12-24T13:41:26.552Z,102851.58
2018-12-24T13:43:56.112Z,102852.39
2018-12-24T13:46:25.622Z,102859.19
2018-12-24T13:48:55.011Z,102866.09
2018-12-24T13:51:24.400Z,102866.16
2018-12-24T13:53:54.006Z,102859.97
2018-12-24T13:56:23.419Z,102859.15
2018-12-24T13:58:52.824Z,102858.21
2018-12-24T14:04:03.595Z,102841.73
2018-12-24T14:09:14.382Z,102839.72
2018-12-24T14:11:44.046Z,102839.73
2018-12-24T14:14:13.510Z,102873.23
2018-12-24T14:16:42.911Z,102843.33
2018-12-24T14:21:53.681Z,102853.41
2018-12-24T14:24:23.194Z,102869.73
2018-12-24T14:26:52.626Z,102872.33
2018-12-24T14:29:22.064Z,102871.55
2018-12-24T14:31:51.565Z,102885.55
2018-12-24T14:34:20.977Z,102878.81
2018-12-24T14:36:50.369Z,102878.06
2018-12-24T14:39:19.904Z,102875.44
2018-12-24T14:41:49.354Z,102881.18
2018-12-24T14:44:18.786Z,102871.42
2018-12-24T14:47:07.317Z,102872.70
2018-12-24T14:49:36.699Z,102876.67
2018-12-24T14:52:06.084Z,102870.41
2018-12-24T14:57:16.912Z,102867.02
2018-12-24T14:59:46.348Z,102860.85
2018-12-24T15:02:15.763Z,102851.10
2018-12-24T15:04:45.148Z,102846.78
2018-12-24T15:07:14.700Z,102850.27
2018-12-24T15:09:44.103Z,102865.23
2018-12-24T15:12:13.500Z,102874.05
2018-12-24T15:15:01.955Z,102890.39
2018-12-24T15:17:31.371Z,102883.18
2018-12-24T15:20:00.762Z,102889.80
2018-12-24T15:22:30.295Z,102888.08
2018-12-24T15:24:59.686Z,102899.91
2018-12-24T15:27:29.079Z,102910.06
2018-12-24T15:29:58.575Z,102915.33
2018-12-24T15:32:27.979Z,102918.78
2018-12-24T15:34:57.398Z,102916.58
2018-12-24T15:37:26.964Z,102929.75
2018-12-24T15:39:56.339Z,102936.47
2018-12-24T15:42:25.710Z,102946.61
2018-12-24T15:45:14.167Z,102948.34
2018-12-24T15:47:43.583Z,102948.34
2018-12-24T15:50:12.928Z,102935.16
2018-12-24T15:52:42.404Z,102939.16
2018-12-24T15:55:11.815Z,102932.17
2018-12-24T15:57:41.218Z,102926.84
2018-12-24T16:00:11.036Z,102928.23
2018-12-24T16:02:40.501Z,102926.39
2018-12-24T16:05:10.297Z,102915.81
2018-12-24T16:10:40.590Z,102907.50
2018-12-24T16:13:10.454Z,102914.09
2018-12-24T16:15:59.351Z,102908.03
2018-12-24T16:18:28.804Z,102913.79
2018-12-24T16:20:58.276Z,102907.66
2018-12-24T16:23:27.698Z,102910.30
2018-12-24T16:25:57.154Z,102909.83
2018-12-24T16:28:26.624Z,102911.21
2018-12-24T16:30:56.017Z,102909.00
2018-12-24T16:33:25.542Z,102912.95
2018-12-24T16:35:54.917Z,102909.86
2018-12-24T16:38:24.321Z,102906.75
2018-12-24T16:40:53.899Z,102905.87
2018-12-24T16:43:23.353Z,102909.37
2018-12-24T16:45:52.781Z,102919.86
2018-12-24T16:48:22.382Z,102923.34
2018-12-24T16:50:51.828Z,102909.70
2018-12-24T16:53:21.300Z,102910.54
2018-12-24T16:55:50.827Z,102912.31
2018-12-24T16:58:20.161Z,102915.80
2018-12-24T17:00:49.574Z,102920.27
2018-12-24T17:03:19.094Z,102928.25
2018-12-24T17:05:48.516Z,102931.75
2018-12-24T17:08:17.928Z,102927.33
2018-12-24T17:10:47.528Z,102930.42
2018-12-24T17:16:05.314Z,102925.59
2018-12-24T17:18:34.788Z,102931.30
2018-12-24T17:21:04.160Z,102913.73
2018-12-24T17:26:14.279Z,102914.08
2018-12-24T17:28:43.839Z,102917.19
2018-12-24T17:31:13.243Z,102913.19
2018-12-24T17:33:42.687Z,102916.70
2018-12-24T17:36:12.275Z,102912.75
2018-12-24T17:38:41.680Z,102917.64
2018-12-24T17:41:11.107Z,102923.44
2018-12-24T17:43:40.585Z,102916.80
2018-12-24T17:46:10.439Z,102910.14
2018-12-24T17:48:40.391Z,102911.03
2018-12-24T17:51:10.548Z,102916.77
2018-12-24T17:53:59.449Z,102918.93
2018-12-24T17:56:28.924Z,102914.97
2018-12-24T17:58:58.378Z,102920.26
2018-12-24T18:01:27.808Z,102927.30
2018-12-24T18:06:38.664Z,102936.98
2018-12-24T18:09:08.903Z,102950.70
2018-12-24T18:11:38.384Z,102949.80
2018-12-24T18:14:07.801Z,102943.66
2018-12-24T18:16:37.244Z,102948.95
2018-12-24T18:19:06.741Z,102948.97
2018-12-24T18:21:36.327Z,102953.42
2018-12-24T18:24:05.789Z,102957.77
2018-12-24T18:26:35.250Z,102958.17
2018-12-24T18:29:04.687Z,102967.50
2018-12-24T18:31:34.169Z,102966.14
2018-12-24T18:34:03.654Z,102979.33
2018-12-24T18:36:33.056Z,102984.17
2018-12-24T18:39:02.695Z,102979.33
2018-12-24T18:41:32.094Z,102987.25
2018-12-24T18:44:01.454Z,102990.77
2018-12-24T18:46:49.915Z,102978.01
2018-12-24T18:49:19.360Z,102989.02
2018-12-24T18:51:48.788Z,102988.56
2018-12-24T18:56:59.636Z,102995.59
2018-12-24T18:59:29.224Z,103005.71
2018-12-24T19:01:58.620Z,103005.34
2018-12-24T19:04:28.100Z,103006.69
2018-12-24T19:06:57.751Z,103017.28
2018-12-24T19:09:27.245Z,103011.56
2018-12-24T19:11:56.662Z,103021.25
2018-12-24T19:14:26.191Z,103028.77
2018-12-24T19:16:55.623Z,103026.06
2018-12-24T19:19:25.039Z,103029.59
2018-12-24T19:21:54.556Z,103038.87
2018-12-24T19:24:24.022Z,103034.44
2018-12-24T19:26:53.490Z,103046.39
2018-12-24T19:29:41.833Z,103048.16
2018-12-24T19:32:11.258Z,103049.02
2018-12-24T19:34:40.641Z,103060.03
2018-12-24T19:37:10.611Z,103056.98
2018-12-24T19:39:40.597Z,103060.05
2018-12-24T19:42:10.564Z,103048.09
2018-12-24T19:44:40.792Z,103050.72
2018-12-24T19:47:10.735Z,103055.14
2018-12-24T19:49:40.539Z,103060.91
2018-12-24T19:52:10.817Z,103064.03
2018-12-24T19:54:40.576Z,103061.41
2018-12-24T19:57:10.654Z,103067.17
2018-12-24T19:59:40.690Z,103070.25
2018-12-24T20:02:29.468Z,103073.75
2018-12-24T20:04:59.001Z,103078.59
2018-12-24T20:07:28.479Z,103095.34
2018-12-24T20:09:57.871Z,103084.28
2018-12-24T20:12:27.528Z,103093.53
2018-12-24T20:14:56.916Z,103100.58
2018-12-24T20:17:26.378Z,103090.81
2018-12-24T20:19:55.905Z,103085.86
2018-12-24T20:22:44.322Z,103086.25
2018-12-24T20:25:14.044Z,103090.64
2018-12-24T20:27:43.473Z,103083.55
2018-12-24T20:30:12.890Z,103079.06
2018-12-24T20:32:42.307Z,103082.56
2018-12-24T20:35:11.742Z,103085.18
2018-12-24T20:37:41.090Z,103085.27
2018-12-24T20:40:10.720Z,103081.24
2018-12-24T20:42:40.640Z,103077.23
2018-12-24T20:48:06.494Z,103088.29
2018-12-24T20:50:30.251Z,103082.47
2018-12-24T20:52:59.671Z,103075.77
2018-12-24T20:55:29.133Z,103070.91
2018-12-24T20:57:58.554Z,103067.80
2018-12-24T21:00:27.955Z,103065.14
2018-12-24T21:02:57.412Z,103070.81
2018-12-24T21:05:26.793Z,103066.38
2018-12-24T21:07:56.177Z,103060.62
2018-12-24T21:13:06.979Z,103058.47
2018-12-24T21:15:36.470Z,103066.86
2018-12-24T21:18:05.859Z,103068.27
2018-12-24T21:20:35.324Z,103070.09
2018-12-24T21:23:04.713Z,103076.32
2018-12-24T21:25:34.099Z,103066.65
2018-12-24T21:30:45.027Z,103063.52
2018-12-24T21:33:14.588Z,103064.39
2018-12-24T21:35:44.002Z,103066.61
2018-12-24T21:38:13.425Z,103058.67
2018-12-24T21:40:42.892Z,103066.17
2018-12-24T21:43:12.277Z,103067.01
2018-12-24T21:45:41.660Z,103067.93
2018-12-24T21:50:52.430Z,103082.89
2018-12-24T21:53:21.909Z,103076.59
2018-12-24T21:55:52.685Z,103083.66
2018-12-24T21:58:41.606Z,103085.80
2018-12-24T22:01:10.986Z,103075.17
2018-12-24T22:03:40.715Z,103077.25
2018-12-24T22:06:10.757Z,103078.63
2018-12-24T22:08:40.851Z,103084.69
2018-12-24T22:11:10.814Z,103081.14
2018-12-24T22:16:22.109Z,103083.38
2018-12-24T22:18:51.640Z,103078.00
2018-12-24T22:21:21.046Z,103086.48
2018-12-24T22:26:38.999Z,103085.17
2018-12-24T22:29:08.559Z,103093.20
2018-12-24T22:31:37.963Z,103092.78
2018-12-24T22:34:26.429Z,103090.10
2018-12-24T22:36:55.977Z,103086.56
2018-12-24T22:39:25.401Z,103088.30
2018-12-24T22:42:13.890Z,103077.64
2018-12-24T22:44:43.334Z,103085.55
2018-12-24T22:47:12.757Z,103070.60
2018-12-24T22:49:42.404Z,103076.80
2018-12-24T22:52:11.851Z,103080.37
2018-12-24T22:54:41.368Z,103072.86
2018-12-24T22:57:10.865Z,103074.08
2018-12-24T22:59:40.909Z,103063.61
2018-12-24T23:02:10.889Z,103065.25
2018-12-24T23:04:40.863Z,103070.09
2018-12-24T23:07:10.727Z,103069.66
2018-12-24T23:09:40.779Z,103065.58
2018-12-24T23:12:29.941Z,103061.96
2018-12-24T23:14:59.381Z,103067.38
2018-12-24T23:17:28.812Z,103081.02
2018-12-24T23:19:58.336Z,103077.43
2018-12-24T23:22:27.773Z,103075.63
2018-12-24T23:27:45.775Z,103077.03
2018-12-24T23:30:15.232Z,103070.86
2018-12-24T23:32:44.736Z,103077.48
2018-12-24T23:35:14.320Z,103076.11
2018-12-24T23:37:43.711Z,103079.69
2018-12-24T23:40:13.117Z,103081.03
2018-12-24T23:45:23.854Z,103070.86
2018-12-24T23:47:53.443Z,103071.70
2018-12-24T23:50:22.947Z,103057.67
2018-12-24T23:52:52.375Z,103059.40
2018-12-24T23:55:40.822Z,103062.41
2018-12-24T23:58:10.759Z,103055.73
